sensor_id;sensor_type;location;lat;lon;timestamp;pressure;altitude;pressure_sealevel;temperature;humidity
41654;BME280;68687;52.030;7.110;2023-05-19T00:02:00;101960.84;;;8.39;70.55
41654;BME280;68687;52.030;7.110;2023-05-19T00:04:26;101956.84;;;8.33;71.49
41654;BME280;68687;52.030;7.110;2023-05-19T00:06:52;101957.72;;;8.33;71.09
41654;BME280;68687;52.030;7.110;2023-05-19T00:09:18;101957.59;;;8.35;70.49
41654;BME280;68687;52.030;7.110;2023-05-19T00:11:44;101948.97;;;8.31;72.05
41654;BME280;68687;52.030;7.110;2023-05-19T00:14:10;101954.31;;;8.31;69.92
41654;BME280;68687;52.030;7.110;2023-05-19T00:16:36;101951.50;;;8.33;70.66
41654;BME280;68687;52.030;7.110;2023-05-19T00:19:03;101943.88;;;8.28;70.68
41654;BME280;68687;52.030;7.110;2023-05-19T00:21:30;101950.22;;;8.27;71.59
41654;BME280;68687;52.030;7.110;2023-05-19T00:23:58;101941.03;;;8.20;72.15
41654;BME280;68687;52.030;7.110;2023-05-19T00:26:24;101945.53;;;8.20;71.68
41654;BME280;68687;52.030;7.110;2023-05-19T00:28:54;101946.94;;;8.14;71.74
41654;BME280;68687;52.030;7.110;2023-05-19T00:31:19;101944.81;;;8.08;74.01
41654;BME280;68687;52.030;7.110;2023-05-19T00:33:44;101951.41;;;8.04;73.42
41654;BME280;68687;52.030;7.110;2023-05-19T00:36:13;101950.56;;;8.03;74.41
41654;BME280;68687;52.030;7.110;2023-05-19T00:38:38;101946.47;;;7.99;76.08
41654;BME280;68687;52.030;7.110;2023-05-19T00:41:04;101949.28;;;7.98;76.86
41654;BME280;68687;52.030;7.110;2023-05-19T00:43:33;101939.81;;;7.94;76.47
41654;BME280;68687;52.030;7.110;2023-05-19T00:46:02;101943.72;;;7.90;77.38
41654;BME280;68687;52.030;7.110;2023-05-19T00:48:27;101944.13;;;7.85;77.00
41654;BME280;68687;52.030;7.110;2023-05-19T00:50:54;101943.56;;;7.82;78.16
41654;BME280;68687;52.030;7.110;2023-05-19T00:53:22;101941.06;;;7.90;77.00
41654;BME280;68687;52.030;7.110;2023-05-19T00:55:48;101935.53;;;7.82;77.99
41654;BME280;68687;52.030;7.110;2023-05-19T00:58:17;101945.38;;;7.81;76.38
41654;BME280;68687;52.030;7.110;2023-05-19T01:00:46;101950.16;;;7.78;78.65
41654;BME280;68687;52.030;7.110;2023-05-19T01:03:15;101946.78;;;7.75;77.20
41654;BME280;68687;52.030;7.110;2023-05-19T01:05:50;101942.28;;;7.76;76.22
41654;BME280;68687;52.030;7.110;2023-05-19T01:08:20;101943.84;;;7.79;76.93
41654;BME280;68687;52.030;7.110;2023-05-19T01:10:46;101943.41;;;7.73;77.34
41654;BME280;68687;52.030;7.110;2023-05-19T01:13:14;101947.31;;;7.69;77.97
41654;BME280;68687;52.030;7.110;2023-05-19T01:16:02;101947.81;;;7.63;79.17
41654;BME280;68687;52.030;7.110;2023-05-19T01:18:43;101944.16;;;7.64;78.59
41654;BME280;68687;52.030;7.110;2023-05-19T01:21:25;101939.63;;;7.55;79.95
41654;BME280;68687;52.030;7.110;2023-05-19T01:24:19;101934.69;;;7.51;80.51
41654;BME280;68687;52.030;7.110;2023-05-19T01:30:15;101924.53;;;7.44;79.77
41654;BME280;68687;52.030;7.110;2023-05-19T01:32:41;101924.03;;;7.39;80.94
41654;BME280;68687;52.030;7.110;2023-05-19T01:35:09;101929.41;;;7.19;81.85
41654;BME280;68687;52.030;7.110;2023-05-19T01:37:37;101932.53;;;7.24;80.67
41654;BME280;68687;52.030;7.110;2023-05-19T01:40:03;101922.84;;;7.23;79.93
41654;BME280;68687;52.030;7.110;2023-05-19T01:42:30;101929.41;;;7.19;79.99
41654;BME280;68687;52.030;7.110;2023-05-19T01:45:02;101934.41;;;7.12;79.95
41654;BME280;68687;52.030;7.110;2023-05-19T01:47:30;101929.06;;;7.12;79.68
41654;BME280;68687;52.030;7.110;2023-05-19T01:49:55;101940.22;;;7.17;80.28
41654;BME280;68687;52.030;7.110;2023-05-19T01:52:21;101934.78;;;7.07;79.67
41654;BME280;68687;52.030;7.110;2023-05-19T01:54:47;101930.78;;;7.13;79.75
41654;BME280;68687;52.030;7.110;2023-05-19T01:57:23;101936.28;;;7.00;79.87
41654;BME280;68687;52.030;7.110;2023-05-19T02:03:16;101937.84;;;7.03;80.28
41654;BME280;68687;52.030;7.110;2023-05-19T02:08:30;101936.63;;;6.86;80.54
41654;BME280;68687;52.030;7.110;2023-05-19T02:11:22;101943.72;;;6.97;80.51
41654;BME280;68687;52.030;7.110;2023-05-19T02:13:54;101938.63;;;6.94;80.79
41654;BME280;68687;52.030;7.110;2023-05-19T02:16:25;101937.34;;;6.88;81.18
41654;BME280;68687;52.030;7.110;2023-05-19T02:18:52;101942.19;;;6.83;81.13
41654;BME280;68687;52.030;7.110;2023-05-19T02:21:18;101944.06;;;6.71;81.50
41654;BME280;68687;52.030;7.110;2023-05-19T02:23:49;101942.63;;;6.67;81.15
41654;BME280;68687;52.030;7.110;2023-05-19T02:26:15;101945.75;;;6.72;80.63
41654;BME280;68687;52.030;7.110;2023-05-19T02:28:40;101944.31;;;6.68;80.02
41654;BME280;68687;52.030;7.110;2023-05-19T02:31:05;101934.63;;;6.56;81.46
41654;BME280;68687;52.030;7.110;2023-05-19T02:33:33;101936.44;;;6.56;82.54
41654;BME280;68687;52.030;7.110;2023-05-19T02:35:58;101937.69;;;6.51;82.39
41654;BME280;68687;52.030;7.110;2023-05-19T02:38:23;101930.66;;;6.50;82.62
41654;BME280;68687;52.030;7.110;2023-05-19T02:40:50;101932.38;;;6.40;83.78
41654;BME280;68687;52.030;7.110;2023-05-19T02:43:16;101931.41;;;6.41;83.78
41654;BME280;68687;52.030;7.110;2023-05-19T02:45:42;101916.63;;;6.37;84.31
41654;BME280;68687;52.030;7.110;2023-05-19T02:48:07;101919.81;;;6.31;84.90
41654;BME280;68687;52.030;7.110;2023-05-19T02:50:32;101917.34;;;6.28;85.00
41654;BME280;68687;52.030;7.110;2023-05-19T02:53:00;101915.06;;;6.35;84.03
41654;BME280;68687;52.030;7.110;2023-05-19T02:55:26;101915.19;;;6.22;84.13
41654;BME280;68687;52.030;7.110;2023-05-19T02:57:55;101919.31;;;6.26;83.82
41654;BME280;68687;52.030;7.110;2023-05-19T03:00:20;101919.19;;;6.28;82.41
41654;BME280;68687;52.030;7.110;2023-05-19T03:02:45;101912.66;;;6.20;83.52
41654;BME280;68687;52.030;7.110;2023-05-19T03:05:10;101917.63;;;6.14;84.47
41654;BME280;68687;52.030;7.110;2023-05-19T03:07:39;101920.56;;;6.11;83.09
41654;BME280;68687;52.030;7.110;2023-05-19T03:10:05;101919.72;;;6.10;84.52
41654;BME280;68687;52.030;7.110;2023-05-19T03:12:32;101918.25;;;6.17;82.27
41654;BME280;68687;52.030;7.110;2023-05-19T03:14:58;101926.97;;;6.19;82.50
41654;BME280;68687;52.030;7.110;2023-05-19T03:17:24;101922.00;;;6.15;83.09
41654;BME280;68687;52.030;7.110;2023-05-19T03:19:49;101915.09;;;6.12;83.44
41654;BME280;68687;52.030;7.110;2023-05-19T03:22:18;101916.44;;;6.07;83.86
41654;BME280;68687;52.030;7.110;2023-05-19T03:24:44;101921.53;;;6.10;82.93
41654;BME280;68687;52.030;7.110;2023-05-19T03:27:11;101921.28;;;6.13;82.93
41654;BME280;68687;52.030;7.110;2023-05-19T03:29:36;101914.25;;;6.12;82.94
41654;BME280;68687;52.030;7.110;2023-05-19T03:32:01;101924.31;;;6.08;83.41
41654;BME280;68687;52.030;7.110;2023-05-19T03:34:30;101921.78;;;6.07;83.43
41654;BME280;68687;52.030;7.110;2023-05-19T03:36:56;101917.41;;;6.06;82.95
41654;BME280;68687;52.030;7.110;2023-05-19T03:39:21;101906.50;;;6.09;83.79
41654;BME280;68687;52.030;7.110;2023-05-19T03:41:47;101912.56;;;6.00;83.75
41654;BME280;68687;52.030;7.110;2023-05-19T03:44:12;101929.78;;;6.07;82.34
41654;BME280;68687;52.030;7.110;2023-05-19T03:46:37;101922.75;;;5.95;82.61
41654;BME280;68687;52.030;7.110;2023-05-19T03:49:02;101927.81;;;5.98;82.90
41654;BME280;68687;52.030;7.110;2023-05-19T03:51:34;101923.22;;;6.00;83.10
41654;BME280;68687;52.030;7.110;2023-05-19T03:54:00;101922.25;;;6.01;83.11
41654;BME280;68687;52.030;7.110;2023-05-19T03:56:27;101924.06;;;6.00;82.53
41654;BME280;68687;52.030;7.110;2023-05-19T03:58:52;101922.63;;;6.07;82.87
41654;BME280;68687;52.030;7.110;2023-05-19T04:01:19;101924.56;;;5.94;83.84
41654;BME280;68687;52.030;7.110;2023-05-19T04:03:44;101931.00;;;6.03;82.61
41654;BME280;68687;52.030;7.110;2023-05-19T04:06:09;101926.72;;;6.00;82.95
41654;BME280;68687;52.030;7.110;2023-05-19T04:08:35;101929.06;;;6.05;83.16
41654;BME280;68687;52.030;7.110;2023-05-19T04:11:00;101930.38;;;6.10;82.79
41654;BME280;68687;52.030;7.110;2023-05-19T04:13:26;101930.50;;;6.09;83.30
41654;BME280;68687;52.030;7.110;2023-05-19T04:16:00;101928.56;;;6.11;85.26
41654;BME280;68687;52.030;7.110;2023-05-19T04:18:26;101937.41;;;6.11;84.94
41654;BME280;68687;52.030;7.110;2023-05-19T04:20:51;101942.34;;;6.16;85.07
41654;BME280;68687;52.030;7.110;2023-05-19T04:23:19;101927.09;;;6.18;83.74
41654;BME280;68687;52.030;7.110;2023-05-19T04:25:48;101936.88;;;6.29;82.99
41654;BME280;68687;52.030;7.110;2023-05-19T04:28:16;101944.28;;;6.36;83.26
41654;BME280;68687;52.030;7.110;2023-05-19T04:30:42;101941.81;;;6.44;83.19
41654;BME280;68687;52.030;7.110;2023-05-19T04:33:07;101947.13;;;6.56;82.67
41654;BME280;68687;52.030;7.110;2023-05-19T04:35:33;101941.78;;;6.56;84.15
41654;BME280;68687;52.030;7.110;2023-05-19T04:37:58;101943.72;;;6.65;83.31
41654;BME280;68687;52.030;7.110;2023-05-19T04:40:26;101936.63;;;6.75;81.92
41654;BME280;68687;52.030;7.110;2023-05-19T04:42:54;101933.69;;;6.89;82.37
41654;BME280;68687;52.030;7.110;2023-05-19T04:45:19;101933.75;;;6.99;81.86
41654;BME280;68687;52.030;7.110;2023-05-19T04:47:45;101925.06;;;7.18;81.80
41654;BME280;68687;52.030;7.110;2023-05-19T04:50:13;101938.47;;;7.48;81.30
41654;BME280;68687;52.030;7.110;2023-05-19T04:52:40;101940.78;;;7.62;79.37
41654;BME280;68687;52.030;7.110;2023-05-19T04:55:10;101944.66;;;7.69;78.25
41654;BME280;68687;52.030;7.110;2023-05-19T04:57:36;101948.59;;;8.05;78.48
41654;BME280;68687;52.030;7.110;2023-05-19T05:00:02;101951.47;;;8.23;77.24
41654;BME280;68687;52.030;7.110;2023-05-19T05:02:33;101938.03;;;8.34;76.21
41654;BME280;68687;52.030;7.110;2023-05-19T05:05:01;101938.03;;;8.44;75.59
41654;BME280;68687;52.030;7.110;2023-05-19T05:07:27;101934.41;;;8.55;75.04
41654;BME280;68687;52.030;7.110;2023-05-19T05:09:52;101937.38;;;8.61;75.14
41654;BME280;68687;52.030;7.110;2023-05-19T05:12:17;101931.63;;;8.85;73.66
41654;BME280;68687;52.030;7.110;2023-05-19T05:14:43;101934.00;;;9.08;73.27
41654;BME280;68687;52.030;7.110;2023-05-19T05:17:11;101933.56;;;9.32;73.35
41654;BME280;68687;52.030;7.110;2023-05-19T05:19:37;101935.63;;;9.47;72.56
41654;BME280;68687;52.030;7.110;2023-05-19T05:22:05;101934.91;;;9.55;72.71
41654;BME280;68687;52.030;7.110;2023-05-19T05:24:31;101936.28;;;9.69;71.44
41654;BME280;68687;52.030;7.110;2023-05-19T05:26:57;101931.03;;;9.77;71.21
41654;BME280;68687;52.030;7.110;2023-05-19T05:29:23;101937.09;;;9.88;70.71
41654;BME280;68687;52.030;7.110;2023-05-19T05:32:01;101941.31;;;9.91;71.05
41654;BME280;68687;52.030;7.110;2023-05-19T05:34:29;101932.59;;;10.07;69.23
41654;BME280;68687;52.030;7.110;2023-05-19T05:36:55;101933.88;;;10.40;69.45
41654;BME280;68687;52.030;7.110;2023-05-19T05:39:20;101931.13;;;10.49;68.63
41654;BME280;68687;52.030;7.110;2023-05-19T05:41:45;101928.69;;;10.56;67.16
41654;BME280;68687;52.030;7.110;2023-05-19T05:44:11;101931.38;;;11.09;66.48
41654;BME280;68687;52.030;7.110;2023-05-19T05:46:39;101929.28;;;11.21;64.89
41654;BME280;68687;52.030;7.110;2023-05-19T05:49:05;101917.94;;;11.27;66.91
41654;BME280;68687;52.030;7.110;2023-05-19T05:51:30;101927.56;;;11.38;64.50
41654;BME280;68687;52.030;7.110;2023-05-19T05:54:00;101920.91;;;11.76;62.73
41654;BME280;68687;52.030;7.110;2023-05-19T05:56:26;101931.94;;;11.65;62.69
41654;BME280;68687;52.030;7.110;2023-05-19T05:58:52;101924.03;;;11.81;62.46
41654;BME280;68687;52.030;7.110;2023-05-19T06:01:17;101917.44;;;12.18;62.29
41654;BME280;68687;52.030;7.110;2023-05-19T06:03:49;101919.72;;;12.47;61.13
41654;BME280;68687;52.030;7.110;2023-05-19T06:06:17;101922.91;;;12.00;59.86
41654;BME280;68687;52.030;7.110;2023-05-19T06:08:43;101910.06;;;12.28;59.29
41654;BME280;68687;52.030;7.110;2023-05-19T06:11:08;101920.50;;;12.23;59.00
41654;BME280;68687;52.030;7.110;2023-05-19T06:13:35;101911.41;;;12.32;60.42
41654;BME280;68687;52.030;7.110;2023-05-19T06:16:00;101907.47;;;12.60;58.39
41654;BME280;68687;52.030;7.110;2023-05-19T06:18:26;101915.41;;;12.86;58.54
41654;BME280;68687;52.030;7.110;2023-05-19T06:20:52;101918.28;;;12.93;57.60
41654;BME280;68687;52.030;7.110;2023-05-19T06:23:20;101912.19;;;12.75;58.33
41654;BME280;68687;52.030;7.110;2023-05-19T06:25:46;101915.28;;;13.20;55.54
41654;BME280;68687;52.030;7.110;2023-05-19T06:28:14;101912.56;;;13.53;56.90
41654;BME280;68687;52.030;7.110;2023-05-19T06:30:39;101914.59;;;13.26;54.93
41654;BME280;68687;52.030;7.110;2023-05-19T06:33:05;101920.31;;;13.48;55.03
41654;BME280;68687;52.030;7.110;2023-05-19T06:35:33;101918.66;;;13.30;55.21
41654;BME280;68687;52.030;7.110;2023-05-19T06:37:58;101909.66;;;13.71;53.96
41654;BME280;68687;52.030;7.110;2023-05-19T06:40:24;101920.16;;;13.97;54.37
41654;BME280;68687;52.030;7.110;2023-05-19T06:42:49;101924.91;;;14.03;52.38
41654;BME280;68687;52.030;7.110;2023-05-19T06:45:14;101919.72;;;14.24;52.63
41654;BME280;68687;52.030;7.110;2023-05-19T06:47:40;101926.06;;;14.08;51.43
41654;BME280;68687;52.030;7.110;2023-05-19T06:50:09;101918.31;;;14.44;52.45
41654;BME280;68687;52.030;7.110;2023-05-19T06:52:35;101919.00;;;14.38;52.44
41654;BME280;68687;52.030;7.110;2023-05-19T06:55:01;101924.38;;;14.38;51.92
41654;BME280;68687;52.030;7.110;2023-05-19T06:57:29;101919.44;;;14.81;51.73
41654;BME280;68687;52.030;7.110;2023-05-19T06:59:54;101915.16;;;15.09;51.59
41654;BME280;68687;52.030;7.110;2023-05-19T07:02:19;101918.34;;;15.13;50.27
41654;BME280;68687;52.030;7.110;2023-05-19T07:04:45;101921.44;;;15.25;50.23
41654;BME280;68687;52.030;7.110;2023-05-19T07:07:11;101921.59;;;15.46;49.58
41654;BME280;68687;52.030;7.110;2023-05-19T07:09:36;101922.78;;;15.96;49.17
41654;BME280;68687;52.030;7.110;2023-05-19T07:12:02;101924.16;;;15.62;47.81
41654;BME280;68687;52.030;7.110;2023-05-19T07:14:36;101922.97;;;15.65;48.50
41654;BME280;68687;52.030;7.110;2023-05-19T07:17:03;101926.50;;;15.65;47.41
41654;BME280;68687;52.030;7.110;2023-05-19T07:19:28;101916.44;;;15.51;48.31
41654;BME280;68687;52.030;7.110;2023-05-19T07:21:56;101925.28;;;15.83;47.90
41654;BME280;68687;52.030;7.110;2023-05-19T07:24:23;101920.78;;;16.19;47.49
41654;BME280;68687;52.030;7.110;2023-05-19T07:26:51;101916.22;;;16.20;46.63
41654;BME280;68687;52.030;7.110;2023-05-19T07:29:17;101910.91;;;15.97;46.48
41654;BME280;68687;52.030;7.110;2023-05-19T07:31:42;101909.16;;;16.40;46.40
41654;BME280;68687;52.030;7.110;2023-05-19T07:34:08;101921.22;;;16.37;45.16
41654;BME280;68687;52.030;7.110;2023-05-19T07:36:33;101914.56;;;16.97;46.07
41654;BME280;68687;52.030;7.110;2023-05-19T07:38:58;101914.69;;;16.68;44.97
41654;BME280;68687;52.030;7.110;2023-05-19T07:41:26;101895.72;;;16.68;45.44
41654;BME280;68687;52.030;7.110;2023-05-19T07:43:52;101903.66;;;16.69;46.43
41654;BME280;68687;52.030;7.110;2023-05-19T07:46:20;101898.78;;;16.65;45.81
41654;BME280;68687;52.030;7.110;2023-05-19T07:48:49;101900.31;;;16.89;46.17
41654;BME280;68687;52.030;7.110;2023-05-19T07:51:14;101889.81;;;17.28;45.12
41654;BME280;68687;52.030;7.110;2023-05-19T07:53:40;101901.00;;;17.19;45.16
41654;BME280;68687;52.030;7.110;2023-05-19T07:56:05;101894.25;;;17.36;45.02
41654;BME280;68687;52.030;7.110;2023-05-19T07:58:30;101898.09;;;17.20;44.65
41654;BME280;68687;52.030;7.110;2023-05-19T08:00:59;101893.59;;;17.62;44.08
41654;BME280;68687;52.030;7.110;2023-05-19T08:03:25;101903.28;;;16.94;44.10
41654;BME280;68687;52.030;7.110;2023-05-19T08:05:50;101901.00;;;17.19;43.60
41654;BME280;68687;52.030;7.110;2023-05-19T08:08:17;101899.75;;;17.71;42.76
41654;BME280;68687;52.030;7.110;2023-05-19T08:10:46;101899.88;;;17.63;42.64
41654;BME280;68687;52.030;7.110;2023-05-19T08:13:14;101884.59;;;17.55;41.50
41654;BME280;68687;52.030;7.110;2023-05-19T08:15:49;101892.94;;;17.88;41.94
41654;BME280;68687;52.030;7.110;2023-05-19T08:18:14;101893.50;;;17.77;42.90
41654;BME280;68687;52.030;7.110;2023-05-19T08:20:39;101887.69;;;18.28;41.59
41654;BME280;68687;52.030;7.110;2023-05-19T08:23:05;101891.72;;;18.38;41.52
41654;BME280;68687;52.030;7.110;2023-05-19T08:25:30;101884.09;;;18.14;40.11
41654;BME280;68687;52.030;7.110;2023-05-19T08:28:02;101878.97;;;18.59;39.46
41654;BME280;68687;52.030;7.110;2023-05-19T08:30:30;101884.41;;;18.52;39.96
41654;BME280;68687;52.030;7.110;2023-05-19T08:32:59;101881.81;;;18.24;39.94
41654;BME280;68687;52.030;7.110;2023-05-19T08:35:30;101876.34;;;18.78;40.51
41654;BME280;68687;52.030;7.110;2023-05-19T08:37:58;101868.81;;;19.20;39.31
41654;BME280;68687;52.030;7.110;2023-05-19T08:40:27;101874.25;;;19.13;38.68
41654;BME280;68687;52.030;7.110;2023-05-19T08:42:58;101878.00;;;18.79;38.63
41654;BME280;68687;52.030;7.110;2023-05-19T08:45:23;101870.91;;;18.72;39.38
41654;BME280;68687;52.030;7.110;2023-05-19T08:47:50;101873.09;;;18.42;38.16
41654;BME280;68687;52.030;7.110;2023-05-19T08:50:18;101868.81;;;18.94;39.03
41654;BME280;68687;52.030;7.110;2023-05-19T08:52:55;101870.91;;;18.78;37.69
41654;BME280;68687;52.030;7.110;2023-05-19T08:55:42;101859.63;;;19.01;37.30
41654;BME280;68687;52.030;7.110;2023-05-19T08:58:11;101852.06;;;19.03;37.93
41654;BME280;68687;52.030;7.110;2023-05-19T09:00:37;101857.50;;;19.03;37.00
41654;BME280;68687;52.030;7.110;2023-05-19T09:03:03;101849.56;;;19.02;37.28
41654;BME280;68687;52.030;7.110;2023-05-19T09:05:29;101847.88;;;18.74;37.41
41654;BME280;68687;52.030;7.110;2023-05-19T09:08:02;101844.09;;;18.82;36.69
41654;BME280;68687;52.030;7.110;2023-05-19T09:10:28;101842.78;;;18.45;37.47
41654;BME280;68687;52.030;7.110;2023-05-19T09:12:53;101846.75;;;18.36;36.86
41654;BME280;68687;52.030;7.110;2023-05-19T09:15:25;101848.03;;;18.53;37.42
41654;BME280;68687;52.030;7.110;2023-05-19T09:18:12;101847.19;;;18.46;36.88
41654;BME280;68687;52.030;7.110;2023-05-19T09:20:44;101836.91;;;19.67;36.52
41654;BME280;68687;52.030;7.110;2023-05-19T09:23:14;101830.25;;;19.50;35.97
41654;BME280;68687;52.030;7.110;2023-05-19T09:25:47;101838.44;;;19.30;36.30
41654;BME280;68687;52.030;7.110;2023-05-19T09:28:13;101827.94;;;20.11;35.79
41654;BME280;68687;52.030;7.110;2023-05-19T09:30:38;101833.09;;;19.81;35.74
41654;BME280;68687;52.030;7.110;2023-05-19T09:33:18;101832.81;;;20.02;35.50
41654;BME280;68687;52.030;7.110;2023-05-19T09:35:46;101828.69;;;20.25;34.34
41654;BME280;68687;52.030;7.110;2023-05-19T09:38:16;101832.97;;;19.43;34.85
41654;BME280;68687;52.030;7.110;2023-05-19T09:40:42;101825.00;;;19.41;34.51
41654;BME280;68687;52.030;7.110;2023-05-19T09:43:08;101814.06;;;20.19;34.54
41654;BME280;68687;52.030;7.110;2023-05-19T09:45:33;101813.09;;;19.36;35.09
41654;BME280;68687;52.030;7.110;2023-05-19T09:48:02;101806.66;;;19.04;35.06
41654;BME280;68687;52.030;7.110;2023-05-19T09:50:28;101810.56;;;19.48;35.58
41654;BME280;68687;52.030;7.110;2023-05-19T09:52:55;101810.03;;;19.84;35.57
41654;BME280;68687;52.030;7.110;2023-05-19T09:55:26;101809.50;;;20.76;34.39
41654;BME280;68687;52.030;7.110;2023-05-19T09:57:53;101809.25;;;20.84;33.67
41654;BME280;68687;52.030;7.110;2023-05-19T10:00:20;101811.75;;;20.54;33.70
41654;BME280;68687;52.030;7.110;2023-05-19T10:02:50;101806.28;;;20.54;33.70
41654;BME280;68687;52.030;7.110;2023-05-19T10:05:16;101814.97;;;19.35;34.18
41654;BME280;68687;52.030;7.110;2023-05-19T10:07:50;101817.66;;;19.42;34.55
41654;BME280;68687;52.030;7.110;2023-05-19T10:10:17;101804.09;;;19.35;34.31
41654;BME280;68687;52.030;7.110;2023-05-19T10:12:47;101813.97;;;20.01;35.15
41654;BME280;68687;52.030;7.110;2023-05-19T10:15:14;101815.13;;;19.73;34.83
41654;BME280;68687;52.030;7.110;2023-05-19T10:17:41;101809.47;;;19.75;34.17
41654;BME280;68687;52.030;7.110;2023-05-19T10:20:12;101806.63;;;19.95;33.52
41654;BME280;68687;52.030;7.110;2023-05-19T10:22:38;101800.41;;;19.81;33.81
41654;BME280;68687;52.030;7.110;2023-05-19T10:25:05;101797.00;;;19.92;32.40
41654;BME280;68687;52.030;7.110;2023-05-19T10:27:36;101787.94;;;19.54;34.51
41654;BME280;68687;52.030;7.110;2023-05-19T10:30:07;101791.72;;;19.46;34.58
41654;BME280;68687;52.030;7.110;2023-05-19T10:32:37;101788.81;;;19.28;35.23
41654;BME280;68687;52.030;7.110;2023-05-19T10:35:27;101786.78;;;18.97;35.13
41654;BME280;68687;52.030;7.110;2023-05-19T10:40:59;101779.72;;;19.67;34.50
41654;BME280;68687;52.030;7.110;2023-05-19T10:46:26;101767.13;;;20.11;34.42
41654;BME280;68687;52.030;7.110;2023-05-19T10:48:53;101777.88;;;20.37;33.13
41654;BME280;68687;52.030;7.110;2023-05-19T10:51:31;101774.44;;;19.72;34.68
41654;BME280;68687;52.030;7.110;2023-05-19T10:53:57;101775.16;;;19.54;33.96
41654;BME280;68687;52.030;7.110;2023-05-19T10:56:30;101778.94;;;19.98;34.36
41654;BME280;68687;52.030;7.110;2023-05-19T10:59:06;101773.09;;;19.94;34.45
41654;BME280;68687;52.030;7.110;2023-05-19T11:01:35;101778.53;;;20.01;34.63
41654;BME280;68687;52.030;7.110;2023-05-19T11:04:05;101774.50;;;19.59;34.02
41654;BME280;68687;52.030;7.110;2023-05-19T11:06:33;101779.19;;;19.12;35.24
41654;BME280;68687;52.030;7.110;2023-05-19T11:11:48;101759.38;;;19.69;34.30
41654;BME280;68687;52.030;7.110;2023-05-19T11:14:27;101752.41;;;20.50;33.43
41654;BME280;68687;52.030;7.110;2023-05-19T11:16:56;101754.22;;;20.31;32.34
41654;BME280;68687;52.030;7.110;2023-05-19T11:19:34;101746.41;;;20.91;32.21
41654;BME280;68687;52.030;7.110;2023-05-19T11:22:12;101762.19;;;19.94;32.71
41654;BME280;68687;52.030;7.110;2023-05-19T11:24:42;101757.13;;;20.04;31.97
41654;BME280;68687;52.030;7.110;2023-05-19T11:30:00;101750.72;;;20.55;32.41
41654;BME280;68687;52.030;7.110;2023-05-19T11:32:33;101745.25;;;19.86;34.02
41654;BME280;68687;52.030;7.110;2023-05-19T11:35:01;101754.31;;;19.80;33.43
41654;BME280;68687;52.030;7.110;2023-05-19T11:37:33;101758.41;;;19.95;34.11
41654;BME280;68687;52.030;7.110;2023-05-19T11:40:00;101750.94;;;19.84;33.29
41654;BME280;68687;52.030;7.110;2023-05-19T11:42:26;101743.22;;;20.44;33.14
41654;BME280;68687;52.030;7.110;2023-05-19T11:44:55;101746.03;;;19.48;33.52
41654;BME280;68687;52.030;7.110;2023-05-19T11:47:23;101748.34;;;19.58;33.54
41654;BME280;68687;52.030;7.110;2023-05-19T11:49:49;101756.50;;;19.58;33.97
41654;BME280;68687;52.030;7.110;2023-05-19T11:52:22;101750.50;;;19.87;32.75
41654;BME280;68687;52.030;7.110;2023-05-19T11:54:48;101751.06;;;19.44;32.88
41654;BME280;68687;52.030;7.110;2023-05-19T11:57:14;101735.81;;;19.37;34.21
41654;BME280;68687;52.030;7.110;2023-05-19T11:59:39;101746.47;;;19.38;34.51
41654;BME280;68687;52.030;7.110;2023-05-19T12:02:41;101747.22;;;18.94;34.86
41654;BME280;68687;52.030;7.110;2023-05-19T12:05:17;101734.44;;;19.01;34.20
41654;BME280;68687;52.030;7.110;2023-05-19T12:07:42;101726.06;;;19.03;33.64
41654;BME280;68687;52.030;7.110;2023-05-19T12:10:11;101731.25;;;19.11;33.69
41654;BME280;68687;52.030;7.110;2023-05-19T12:12:36;101725.84;;;19.18;34.82
41654;BME280;68687;52.030;7.110;2023-05-19T12:15:05;101729.88;;;18.75;33.39
41654;BME280;68687;52.030;7.110;2023-05-19T12:17:31;101736.34;;;18.74;33.99
41654;BME280;68687;52.030;7.110;2023-05-19T12:19:56;101732.38;;;18.70;33.96
41654;BME280;68687;52.030;7.110;2023-05-19T12:22:22;101717.91;;;18.96;33.84
41654;BME280;68687;52.030;7.110;2023-05-19T12:24:48;101721.63;;;19.15;34.55
41654;BME280;68687;52.030;7.110;2023-05-19T12:27:22;101728.03;;;19.54;34.83
41654;BME280;68687;52.030;7.110;2023-05-19T12:29:53;101721.25;;;19.05;35.41
41654;BME280;68687;52.030;7.110;2023-05-19T12:32:23;101718.69;;;19.17;36.03
41654;BME280;68687;52.030;7.110;2023-05-19T12:34:49;101710.81;;;18.82;35.69
41654;BME280;68687;52.030;7.110;2023-05-19T12:37:15;101715.63;;;18.93;35.60
41654;BME280;68687;52.030;7.110;2023-05-19T12:39:41;101709.94;;;19.08;35.45
41654;BME280;68687;52.030;7.110;2023-05-19T12:42:07;101715.69;;;19.38;34.85
41654;BME280;68687;52.030;7.110;2023-05-19T12:44:53;101718.13;;;18.95;34.02
41654;BME280;68687;52.030;7.110;2023-05-19T12:47:19;101710.81;;;18.75;34.75
41654;BME280;68687;52.030;7.110;2023-05-19T12:49:55;101709.16;;;18.68;35.12
41654;BME280;68687;52.030;7.110;2023-05-19T12:52:27;101708.72;;;18.97;35.54
41654;BME280;68687;52.030;7.110;2023-05-19T12:55:07;101699.03;;;19.08;35.81
41654;BME280;68687;52.030;7.110;2023-05-19T12:57:37;101706.00;;;18.91;36.66
41654;BME280;68687;52.030;7.110;2023-05-19T13:00:06;101698.06;;;18.76;37.04
41654;BME280;68687;52.030;7.110;2023-05-19T13:02:37;101702.66;;;18.75;36.50
41654;BME280;68687;52.030;7.110;2023-05-19T13:05:18;101697.22;;;18.62;37.01
41654;BME280;68687;52.030;7.110;2023-05-19T13:10:27;101699.75;;;18.44;37.50
41654;BME280;68687;52.030;7.110;2023-05-19T13:12:53;101693.03;;;18.79;37.41
41654;BME280;68687;52.030;7.110;2023-05-19T13:15:21;101698.91;;;18.76;36.03
41654;BME280;68687;52.030;7.110;2023-05-19T13:17:47;101683.41;;;18.83;36.08
41654;BME280;68687;52.030;7.110;2023-05-19T13:20:12;101688.84;;;18.83;36.08
41654;BME280;68687;52.030;7.110;2023-05-19T13:22:38;101684.66;;;18.81;37.09
41654;BME280;68687;52.030;7.110;2023-05-19T13:25:04;101693.84;;;19.00;36.33